createdAt,value
2023-05-21T00:01:16.580Z,14.80
2023-05-21T00:05:34.352Z,14.70
2023-05-21T00:09:52.985Z,14.70
2023-05-21T00:14:11.975Z,14.60
2023-05-21T00:18:32.497Z,14.60
2023-05-21T00:22:53.189Z,14.60
2023-05-21T00:27:11.277Z,14.50
2023-05-21T00:31:30.227Z,14.50
2023-05-21T00:35:50.043Z,14.50
2023-05-21T00:40:09.794Z,14.40
2023-05-21T00:44:34.433Z,14.40
2023-05-21T00:48:55.029Z,14.40
2023-05-21T00:53:15.524Z,14.30
2023-05-21T00:57:33.440Z,14.30
2023-05-21T01:01:56.154Z,14.20
2023-05-21T01:06:16.308Z,14.20
2023-05-21T01:10:36.079Z,14.20
2023-05-21T01:14:55.267Z,14.20
2023-05-21T01:19:18.689Z,14.10
2023-05-21T01:23:38.129Z,14.10
2023-05-21T01:27:57.979Z,14.00
2023-05-21T01:32:24.476Z,14.00
2023-05-21T01:36:48.767Z,13.90
2023-05-21T01:41:13.653Z,13.90
2023-05-21T01:45:34.536Z,13.80
2023-05-21T01:49:54.831Z,13.70
2023-05-21T01:54:12.800Z,13.70
2023-05-21T01:58:32.270Z,13.70
2023-05-21T02:02:52.837Z,13.60
2023-05-21T02:07:10.306Z,13.60
2023-05-21T02:11:28.331Z,13.50
2023-05-21T02:15:48.409Z,13.50
2023-05-21T02:20:11.564Z,13.40
2023-05-21T02:24:31.921Z,13.40
2023-05-21T02:28:49.823Z,13.30
2023-05-21T02:33:09.860Z,13.30
2023-05-21T02:37:29.055Z,13.20
2023-05-21T02:41:47.500Z,13.10
2023-05-21T02:46:08.617Z,13.00
2023-05-21T02:50:27.615Z,13.00
2023-05-21T02:54:50.732Z,12.90
2023-05-21T02:59:08.445Z,12.90
2023-05-21T03:03:29.848Z,12.90
2023-05-21T03:07:49.058Z,12.80
2023-05-21T03:12:09.405Z,12.80
2023-05-21T03:16:26.893Z,12.80
2023-05-21T03:20:45.487Z,12.80
2023-05-21T03:25:04.419Z,12.70
2023-05-21T03:29:24.232Z,12.70
2023-05-21T03:33:42.201Z,12.70
2023-05-21T03:38:15.962Z,12.70
2023-05-21T03:42:34.928Z,12.80
2023-05-21T03:46:54.696Z,12.90
2023-05-21T03:51:16.053Z,12.90
2023-05-21T03:55:34.243Z,12.90
2023-05-21T03:59:53.423Z,13.00
2023-05-21T04:04:13.082Z,12.90
2023-05-21T04:08:31.297Z,12.90
2023-05-21T04:12:52.530Z,13.00
2023-05-21T04:17:14.918Z,13.00
2023-05-21T04:21:34.525Z,13.20
2023-05-21T04:25:53.034Z,13.40
2023-05-21T04:30:13.941Z,13.60
2023-05-21T04:34:36.348Z,13.70
2023-05-21T04:38:56.234Z,13.80
2023-05-21T04:43:14.085Z,13.90
2023-05-21T04:47:35.490Z,13.90
2023-05-21T04:51:57.754Z,14.10
2023-05-21T04:56:18.567Z,14.10
2023-05-21T05:00:39.043Z,14.20
2023-05-21T05:04:59.973Z,14.30
2023-05-21T05:09:19.061Z,14.40
2023-05-21T05:13:38.774Z,14.60
2023-05-21T05:17:57.039Z,14.70
2023-05-21T05:22:14.904Z,14.90
2023-05-21T05:26:34.824Z,14.90
2023-05-21T05:30:54.066Z,15.10
2023-05-21T05:35:18.323Z,15.30
2023-05-21T05:39:36.338Z,15.40
2023-05-21T05:43:58.877Z,15.70
2023-05-21T05:48:22.029Z,16.10
2023-05-21T05:52:39.929Z,16.60
2023-05-21T05:56:58.166Z,17.20
2023-05-21T06:01:22.755Z,17.90
2023-05-21T06:05:40.308Z,18.40
2023-05-21T06:09:58.334Z,18.80
2023-05-21T06:14:16.213Z,19.00
2023-05-21T06:18:35.765Z,19.00
2023-05-21T06:22:55.335Z,18.90
2023-05-21T06:27:13.527Z,18.80
2023-05-21T06:31:32.913Z,18.80
2023-05-21T06:35:54.139Z,18.80
2023-05-21T06:40:14.060Z,18.80
2023-05-21T06:44:31.734Z,18.90
2023-05-21T06:49:07.138Z,19.10
2023-05-21T06:53:27.656Z,19.30
2023-05-21T06:57:47.485Z,19.40
2023-05-21T07:02:05.673Z,19.60
2023-05-21T07:06:24.040Z,20.00
2023-05-21T07:10:44.010Z,20.80
2023-05-21T07:15:02.699Z,21.60
2023-05-21T07:19:21.031Z,22.70
2023-05-21T07:23:42.160Z,23.70
2023-05-21T07:28:01.459Z,24.60
2023-05-21T07:32:21.832Z,25.40
2023-05-21T07:36:42.285Z,26.20
2023-05-21T07:41:00.488Z,26.90
2023-05-21T07:45:20.357Z,27.50
2023-05-21T07:49:39.498Z,28.20
2023-05-21T07:53:57.714Z,28.50
2023-05-21T07:58:25.001Z,28.90
2023-05-21T08:02:47.442Z,29.10
2023-05-21T08:07:07.158Z,29.40
2023-05-21T08:11:25.134Z,29.60
2023-05-21T08:15:43.664Z,29.70
2023-05-21T08:20:07.300Z,29.80
2023-05-21T08:24:28.649Z,30.10
2023-05-21T08:28:47.211Z,30.30
2023-05-21T08:33:04.876Z,30.40
2023-05-21T08:37:27.192Z,30.50
2023-05-21T08:42:08.957Z,30.80
2023-05-21T08:46:30.187Z,31.20
2023-05-21T08:50:48.374Z,31.50
2023-05-21T08:55:13.780Z,31.60
2023-05-21T08:59:33.067Z,31.70
2023-05-21T09:04:04.920Z,31.90
2023-05-21T09:08:32.569Z,32.40
2023-05-21T09:12:56.533Z,32.70
2023-05-21T09:17:16.017Z,32.50
2023-05-21T09:21:37.172Z,32.30
2023-05-21T09:26:13.840Z,32.10
2023-05-21T09:30:40.228Z,31.90
2023-05-21T09:34:59.303Z,31.80
2023-05-21T09:39:29.853Z,31.90
2023-05-21T09:43:50.976Z,32.00
2023-05-21T09:48:09.798Z,32.20
2023-05-21T09:52:30.556Z,32.30
2023-05-21T09:56:47.726Z,32.30
2023-05-21T10:01:06.082Z,32.50
2023-05-21T10:05:28.767Z,32.60
2023-05-21T10:09:49.410Z,32.60
2023-05-21T10:14:13.193Z,32.30
2023-05-21T10:18:34.530Z,32.10
2023-05-21T10:22:56.791Z,31.80
2023-05-21T10:27:15.699Z,31.50
2023-05-21T10:31:33.816Z,31.20
2023-05-21T10:35:53.266Z,31.10
2023-05-21T10:40:15.680Z,31.20
2023-05-21T10:44:45.717Z,31.60
2023-05-21T10:49:28.277Z,31.80
2023-05-21T10:54:14.927Z,31.80
2023-05-21T10:59:08.035Z,31.60
2023-05-21T11:03:30.870Z,31.60
2023-05-21T11:07:53.948Z,31.40
2023-05-21T11:12:14.585Z,31.40
2023-05-21T11:16:37.574Z,31.50
2023-05-21T11:20:55.468Z,31.50
2023-05-21T11:25:13.587Z,31.40
2023-05-21T11:29:42.051Z,31.30
2023-05-21T11:34:13.669Z,31.00
2023-05-21T11:38:35.376Z,30.60
2023-05-21T11:42:55.303Z,30.20
2023-05-21T11:47:15.078Z,29.90
2023-05-21T11:51:34.347Z,29.60
2023-05-21T11:55:57.685Z,29.20
2023-05-21T12:00:18.449Z,28.90
2023-05-21T12:04:38.680Z,28.60
2023-05-21T12:09:01.511Z,28.40
2023-05-21T12:13:22.474Z,28.20
2023-05-21T12:17:42.693Z,27.90
2023-05-21T12:22:02.718Z,27.70
2023-05-21T12:26:25.434Z,27.60
2023-05-21T12:30:45.560Z,27.60
2023-05-21T12:35:03.748Z,27.60
2023-05-21T12:39:21.668Z,27.60
2023-05-21T12:43:41.138Z,27.60
2023-05-21T12:48:03.212Z,27.60
2023-05-21T12:52:21.844Z,27.60
2023-05-21T12:56:45.977Z,27.70
2023-05-21T13:01:08.298Z,27.70
2023-05-21T13:05:28.569Z,27.70
2023-05-21T13:09:46.647Z,27.70
2023-05-21T13:14:04.492Z,27.60
2023-05-21T13:18:24.080Z,27.70
2023-05-21T13:22:46.724Z,27.70
2023-05-21T13:27:04.982Z,27.60
2023-05-21T13:31:22.921Z,27.60
2023-05-21T13:35:43.334Z,27.60
2023-05-21T13:40:02.056Z,27.70
2023-05-21T13:44:20.327Z,27.80
2023-05-21T13:48:38.422Z,27.90
2023-05-21T13:52:58.110Z,27.90
2023-05-21T13:57:17.813Z,27.90
2023-05-21T14:01:35.657Z,27.90
2023-05-21T14:05:53.766Z,27.90
2023-05-21T14:10:14.071Z,27.80
2023-05-21T14:14:33.430Z,27.70
2023-05-21T14:18:50.932Z,27.60
2023-05-21T14:23:09.437Z,27.50
2023-05-21T14:27:28.332Z,27.50
2023-05-21T14:31:48.655Z,27.50
2023-05-21T14:36:06.842Z,27.50
2023-05-21T14:40:24.096Z,27.50
2023-05-21T14:44:43.829Z,27.40
2023-05-21T14:49:03.808Z,27.50
2023-05-21T14:53:21.539Z,27.40
2023-05-21T14:57:39.552Z,27.40
2023-05-21T15:01:59.260Z,27.30
2023-05-21T15:06:18.668Z,27.30
2023-05-21T15:10:36.835Z,27.20
2023-05-21T15:14:54.860Z,27.20
2023-05-21T15:19:14.476Z,27.10
2023-05-21T15:23:33.956Z,27.00
2023-05-21T15:27:51.997Z,26.90
2023-05-21T15:32:10.368Z,26.80
2023-05-21T15:36:29.383Z,26.80
2023-05-21T15:40:49.437Z,26.70
2023-05-21T15:45:08.181Z,26.70
2023-05-21T15:49:25.648Z,26.70
2023-05-21T15:53:44.896Z,26.70
2023-05-21T15:58:05.556Z,26.60
2023-05-21T16:02:25.876Z,26.50
2023-05-21T16:06:43.869Z,26.40
2023-05-21T16:11:03.323Z,26.30
2023-05-21T16:15:22.980Z,26.30
2023-05-21T16:19:40.824Z,26.30
2023-05-21T16:23:59.154Z,26.20
2023-05-21T16:28:18.555Z,26.10
2023-05-21T16:32:39.593Z,26.00
2023-05-21T16:36:59.656Z,25.80
2023-05-21T16:41:17.373Z,25.80
2023-05-21T16:45:41.438Z,25.60
2023-05-21T16:50:00.877Z,25.50
2023-05-21T16:54:21.121Z,25.40
2023-05-21T16:58:39.180Z,25.30
2023-05-21T17:02:58.627Z,25.10
2023-05-21T17:07:18.493Z,25.00
2023-05-21T17:11:36.382Z,24.80
2023-05-21T17:15:54.093Z,24.70
2023-05-21T17:20:14.555Z,24.60
2023-05-21T17:24:33.445Z,24.50
2023-05-21T17:28:51.613Z,24.40
2023-05-21T17:33:13.159Z,24.20
2023-05-21T17:37:32.067Z,24.10
2023-05-21T17:41:54.895Z,24.10
2023-05-21T17:46:16.659Z,23.90
2023-05-21T17:50:34.276Z,23.80
2023-05-21T17:54:53.335Z,23.70
2023-05-21T17:59:13.511Z,23.60
2023-05-21T18:03:31.705Z,23.50
2023-05-21T18:07:49.292Z,23.40
2023-05-21T18:12:09.378Z,23.30
2023-05-21T18:16:31.004Z,23.20
2023-05-21T18:20:51.267Z,23.10
2023-05-21T18:25:13.608Z,23.00
2023-05-21T18:29:33.764Z,22.90
2023-05-21T18:33:55.885Z,22.70
2023-05-21T18:38:14.368Z,22.60
2023-05-21T18:42:35.889Z,22.50
2023-05-21T18:46:55.702Z,22.40
2023-05-21T18:51:17.677Z,22.30
2023-05-21T18:55:36.369Z,22.20
2023-05-21T18:59:57.809Z,22.00
2023-05-21T19:04:19.967Z,21.90
2023-05-21T19:08:39.066Z,21.80
2023-05-21T19:12:57.382Z,21.60
2023-05-21T19:17:15.168Z,21.50
2023-05-21T19:21:46.097Z,21.40
2023-05-21T19:26:04.957Z,21.30
2023-05-21T19:30:24.782Z,21.20
2023-05-21T19:34:42.709Z,21.10
2023-05-21T19:39:01.752Z,21.00
2023-05-21T19:43:23.402Z,20.90
2023-05-21T19:47:44.513Z,20.80
2023-05-21T19:52:04.228Z,20.70
2023-05-21T19:56:22.452Z,20.70
2023-05-21T20:00:49.045Z,20.60
2023-05-21T20:05:11.160Z,20.60
2023-05-21T20:09:32.220Z,20.50
2023-05-21T20:13:53.395Z,20.40
2023-05-21T20:18:12.986Z,20.40
2023-05-21T20:22:33.483Z,20.40
2023-05-21T20:26:55.368Z,20.40
2023-05-21T20:31:14.443Z,20.40
2023-05-21T20:35:34.076Z,20.30
2023-05-21T20:39:58.006Z,20.20
2023-05-21T20:44:21.269Z,20.20
2023-05-21T20:48:39.678Z,20.10
2023-05-21T20:53:02.257Z,20.10
2023-05-21T20:57:22.429Z,20.00
2023-05-21T21:01:42.675Z,20.00
2023-05-21T21:06:01.179Z,20.00
2023-05-21T21:10:20.734Z,19.90
2023-05-21T21:14:39.423Z,19.90
2023-05-21T21:19:02.808Z,19.80
2023-05-21T21:23:21.878Z,19.80
2023-05-21T21:27:42.917Z,19.70
2023-05-21T21:32:00.929Z,19.70
2023-05-21T21:36:19.217Z,19.60
2023-05-21T21:40:37.480Z,19.60
2023-05-21T21:44:56.797Z,19.50
2023-05-21T21:49:17.278Z,19.50
2023-05-21T21:53:37.547Z,19.50
2023-05-21T21:57:57.994Z,19.40
2023-05-21T22:02:19.836Z,19.30
2023-05-21T22:06:39.065Z,19.30
2023-05-21T22:10:58.902Z,19.20
2023-05-21T22:15:22.995Z,19.20
2023-05-21T22:19:43.021Z,19.10
2023-05-21T22:24:02.165Z,19.10
2023-05-21T22:28:22.431Z,19.00
2023-05-21T22:32:44.636Z,18.90
2023-05-21T22:37:06.757Z,18.90
2023-05-21T22:41:27.088Z,18.80
2023-05-21T22:45:44.801Z,18.70
2023-05-21T22:50:04.371Z,18.70
2023-05-21T22:54:25.663Z,18.60
2023-05-21T22:58:45.286Z,18.60
2023-05-21T23:03:06.806Z,18.50
2023-05-21T23:07:24.424Z,18.50
2023-05-21T23:11:43.944Z,18.50
2023-05-21T23:16:03.953Z,18.40
2023-05-21T23:20:22.839Z,18.40
2023-05-21T23:24:42.455Z,18.40
2023-05-21T23:29:02.467Z,18.40
2023-05-21T23:33:24.388Z,18.30
2023-05-21T23:37:42.959Z,18.30
2023-05-21T23:42:00.897Z,18.30
2023-05-21T23:46:21.074Z,18.20
2023-05-21T23:50:40.692Z,18.20
2023-05-21T23:54:59.125Z,18.10
2023-05-21T23:59:18.360Z,18.10
